Airfield :
LOGIN :

Register | Disclaimer

   EN    FR    IT 

 










Legend :    VFR   Marginal VFR   IFR   Intensive IFR   Very Intensive IFR
Visi :
Ceiling :
>= 8 km
>= 3000ft
5 to 8 km
1000 to 3000 ft
1500m to 5 km
500 to 1000 ft
800 to 1500m
200 to 500 ft
< 800m
< 200 ft
Symbols :   Thunderstorms  Fog  Heavy snow  Heavy precipitations  Wind > 20 kt
SIGMETs :     Misc.  Thunderstorms  Icing  Turbulence  Mountain Waves  Volcanic Ashes






- Airport Elevation : 84 ft


LFBC - Cazaux

CURRENT METAR :
  • 280830Z AUTO 13007KT CAVOK 24/14 Q1024 NOSIG

EXPIRED METARs :
  • 280800Z AUTO 12007KT CAVOK 23/14 Q1024
  • 280730Z AUTO 12007KT CAVOK 21/14 Q1024 NOSIG
  • 280700Z AUTO 10004KT CAVOK 20/14 Q1024 NOSIG
  • 280630Z AUTO VRB03KT CAVOK 18/12 Q1025 NOSIG
  • 280600Z AUTO VRB02KT CAVOK 16/11 Q1025 NOSIG
  • 280530Z AUTO 02001KT CAVOK 14/10 Q1024 NOSIG

TAF TAF LFBC
Valid from the 28 at 09:00 until the 29 at 09:00 UTC


280800Z 2809/2909 10008KT CAVOK



MET'MAP, your aeronautical weather chart ! - Copyright ORBIFLY December 2007 - Disclaimer

ORBIFLY MET'MAP TEAM :

Programming & Development : Alexandra Zaïnal
Concept & original design : Baudouin d'Aumeries
Assistance for programming : Marc-Olivier Méhu
Technical & hardware support : Manuel Goepfert

Contact : metmap@orbifly.com




SOURCES & CREDITS :

   NOAA